Ridgeville, SC

6:44 AM EST on February 13, 2016 (GMT -0500)
Summerville | | Change Station
CLOSE
Current Station
Airport
Location: Summerville,
Elevation: 56 ft
Nearby Weather Stations
Active Advisory: Flood Warning

Elev 56 ft 33.06 °N, 80.28 °W | Updated 9 minutes ago

Clear
Clear
34 °F
Feels Like 31 °F
N
4
Wind Variable Wind from NW

Today
High -- | Low -- °F
--% Chance of Precip.
Yesterday
High -- | Low -- °F
Precip. -- in
Pressure 30.20 in
Visibility 10.0 miles
Clouds Clear
Windchill 31 °F
Dew Point 34 °F
Humidity 100%
Rainfall 0.00 in
Snow Depth Not available.
7:07 AM 6:04 PM
Waxing Crescent, 30% visible
METAR KDYB 131135Z AUTO 31003KT 10SM CLR 01/01 A3020 RMK AO1
Pressure 30.20 in
Visibility 10.0 miles
Clouds Clear
Windchill 31 °F
Dew Point 34 °F
Humidity 100%
Rainfall 0.00 in
Snow Depth Not available.
7:07 AM 6:04 PM
Waxing Crescent, 30% visible
METAR KDYB 131135Z AUTO 31003KT 10SM CLR 01/01 A3020 RMK AO1

10-Day Weather Forecast

Almanac

Astronomy

Feb. 13, 2016 Rise Set
Actual Time
Civil Twilight
Nautical Twilight
Astronomical Twilight
Moon
Length of Visible Light
Length of Day
Tomorrow will be .
, % of the Moon is Illuminated

Today's Extremes

State Highs State Lows

Community

WunderPhotos

Upload Photos

1,892,541 photos uploaded!

WunderBlog® & News

Nearby

Air Quality

  Air Quality AQ Index Pollutant
Not available.

Snow Depth

Station Depth Elevation

Earthquake Activity

City Distance Mag. Time & Date
Minimum magnitude displayed is 2.5.

Coastal Water Temperatures

Place Temperature

Stations

Nearby Weather Stations

Station Location Temp. Windchill Dew Point Humidity Wind Precip. Elev Updated Type
                   

Watches & Warnings

Flood Warning
Issued: 8:01 PM EST Feb. 12, 2016 – National Weather Service

The Flood Warning continues for
the edisto river near Givhans Ferry.
* At 7 PM Friday the stage was 12.5 feet.
* Flood stage is 10.0 feet.
* Moderate flooding is occurring.
* Forecast, the river will continue to fall.
* At 12.5 feet, lower portions of hideaway Lane flood. Water also
covers the driveways in the Harts Bluff community.


Lat... Lon 3304 8065 3311 8062 3308 8036 3286 8036
          3286 8045 3302 8044